createdAt,value
2018-03-16T00:00:34.223Z,4.76
2018-03-16T00:03:06.696Z,4.15
2018-03-16T00:05:39.205Z,4.89
2018-03-16T00:08:11.709Z,4.85
2018-03-16T00:10:44.381Z,4.72
2018-03-16T00:13:16.952Z,4.20
2018-03-16T00:15:49.462Z,4.44
2018-03-16T00:18:21.966Z,4.61
2018-03-16T00:20:54.471Z,5.09
2018-03-16T00:23:26.949Z,4.87
2018-03-16T00:25:59.446Z,4.64
2018-03-16T00:28:31.931Z,3.94
2018-03-16T00:31:04.438Z,4.75
2018-03-16T00:33:36.916Z,4.35
2018-03-16T00:36:09.405Z,4.84
2018-03-16T00:38:42.059Z,4.37
2018-03-16T00:41:14.715Z,4.21
2018-03-16T00:43:47.311Z,4.56
2018-03-16T00:46:19.824Z,4.94
2018-03-16T00:48:52.351Z,4.22
2018-03-16T00:51:24.853Z,4.46
2018-03-16T00:53:57.326Z,4.47
2018-03-16T00:56:29.828Z,4.99
2018-03-16T00:59:02.297Z,5.09
2018-03-16T01:01:34.790Z,4.99
2018-03-16T01:04:07.262Z,4.65
2018-03-16T01:06:39.755Z,4.95
2018-03-16T01:09:12.441Z,5.04
2018-03-16T01:11:45.062Z,5.01
2018-03-16T01:14:17.651Z,3.50
2018-03-16T01:16:50.257Z,4.67
2018-03-16T01:19:22.825Z,4.58
2018-03-16T01:21:55.328Z,4.36
2018-03-16T01:24:27.817Z,4.44
2018-03-16T01:27:00.326Z,4.29
2018-03-16T01:29:32.812Z,4.58
2018-03-16T01:32:05.306Z,4.71
2018-03-16T01:34:37.786Z,4.23
2018-03-16T01:37:10.295Z,4.83
2018-03-16T01:39:43.245Z,3.64
2018-03-16T01:42:15.877Z,4.51
2018-03-16T01:44:48.401Z,4.54
2018-03-16T01:47:20.949Z,4.07
2018-03-16T01:49:53.462Z,3.95
2018-03-16T01:52:25.958Z,4.50
2018-03-16T01:54:58.437Z,4.54
2018-03-16T01:57:30.934Z,4.12
2018-03-16T02:00:03.412Z,4.74
2018-03-16T02:02:35.915Z,4.65
2018-03-16T02:05:08.402Z,4.79
2018-03-16T02:07:40.903Z,4.49
2018-03-16T02:10:13.467Z,4.62
2018-03-16T02:12:46.127Z,4.41
2018-03-16T02:15:18.656Z,3.89
2018-03-16T02:17:51.226Z,4.40
2018-03-16T02:20:23.757Z,4.69
2018-03-16T02:22:56.272Z,4.01
2018-03-16T02:25:28.751Z,4.51
2018-03-16T02:28:01.248Z,4.42
2018-03-16T02:30:33.726Z,3.87
2018-03-16T02:33:06.230Z,4.59
2018-03-16T02:35:38.706Z,4.44
2018-03-16T02:38:11.211Z,4.50
2018-03-16T02:40:44.335Z,4.74
2018-03-16T02:43:17.137Z,4.59
2018-03-16T02:45:49.670Z,4.71
2018-03-16T02:48:22.235Z,3.85
2018-03-16T02:50:54.734Z,4.68
2018-03-16T02:53:27.208Z,4.15
2018-03-16T02:55:59.723Z,3.95
2018-03-16T02:58:32.204Z,4.70
2018-03-16T03:01:04.711Z,4.25
2018-03-16T03:03:37.202Z,4.20
2018-03-16T03:06:09.704Z,4.51
2018-03-16T03:08:43.499Z,4.32
2018-03-16T03:11:16.350Z,4.58
2018-03-16T03:13:48.867Z,3.63
2018-03-16T03:16:21.390Z,3.92
2018-03-16T03:18:53.894Z,4.39
2018-03-16T03:21:26.386Z,4.81
2018-03-16T03:23:58.857Z,4.78
2018-03-16T03:26:31.361Z,4.85
2018-03-16T03:29:03.829Z,4.63
2018-03-16T03:31:36.324Z,3.89
2018-03-16T03:34:08.802Z,3.91
2018-03-16T03:36:41.310Z,4.68
2018-03-16T03:39:13.881Z,4.45
2018-03-16T03:41:46.411Z,4.63
2018-03-16T03:44:18.927Z,4.50
2018-03-16T03:46:51.437Z,5.13
2018-03-16T03:49:23.949Z,4.44
2018-03-16T03:51:56.450Z,4.40
2018-03-16T03:54:28.927Z,4.70
2018-03-16T03:57:01.418Z,4.39
2018-03-16T03:59:33.885Z,4.73
2018-03-16T04:02:06.382Z,4.39
2018-03-16T04:04:38.850Z,4.13
2018-03-16T04:07:11.351Z,4.97
2018-03-16T04:09:44.646Z,4.88
2018-03-16T04:12:17.394Z,4.54
2018-03-16T04:14:49.945Z,4.90
2018-03-16T04:17:22.542Z,4.78
2018-03-16T04:19:55.051Z,4.73
2018-03-16T04:22:27.558Z,4.95
2018-03-16T04:25:00.035Z,4.69
2018-03-16T04:27:32.529Z,4.88
2018-03-16T04:30:05.033Z,4.41
2018-03-16T04:32:37.534Z,4.39
2018-03-16T04:35:10.032Z,4.62
2018-03-16T04:37:42.909Z,4.76
2018-03-16T04:40:15.517Z,4.69
2018-03-16T04:42:48.090Z,4.80
2018-03-16T04:45:20.665Z,5.03
2018-03-16T04:47:53.247Z,4.85
2018-03-16T04:50:25.760Z,5.10
2018-03-16T04:52:58.263Z,4.80
2018-03-16T04:55:30.744Z,4.88
2018-03-16T04:58:03.241Z,4.89
2018-03-16T05:00:35.724Z,4.63
2018-03-16T05:03:08.238Z,4.69
2018-03-16T05:05:40.714Z,4.67
2018-03-16T05:08:13.419Z,4.88
2018-03-16T05:10:46.050Z,4.53
2018-03-16T05:13:18.684Z,4.22
2018-03-16T05:15:51.271Z,4.49
2018-03-16T05:18:23.804Z,4.55
2018-03-16T05:20:56.280Z,4.17
2018-03-16T05:23:28.779Z,4.50
2018-03-16T05:26:01.247Z,4.78
2018-03-16T05:28:33.752Z,4.24
2018-03-16T05:31:06.235Z,4.40
2018-03-16T05:33:38.726Z,4.15
2018-03-16T05:36:11.220Z,4.28
2018-03-16T05:38:43.792Z,4.22
2018-03-16T05:41:16.377Z,3.92
2018-03-16T05:43:48.933Z,4.26
2018-03-16T05:46:22.184Z,4.43
2018-03-16T05:48:54.985Z,4.28
2018-03-16T05:51:27.467Z,4.21
2018-03-16T05:53:59.963Z,3.69
2018-03-16T05:56:32.443Z,3.52
2018-03-16T05:59:04.952Z,4.40
2018-03-16T06:01:37.440Z,4.36
2018-03-16T06:04:09.946Z,4.35
2018-03-16T06:06:42.761Z,4.23
2018-03-16T06:09:15.539Z,4.35
2018-03-16T06:11:48.049Z,4.43
2018-03-16T06:14:20.610Z,4.59
2018-03-16T06:16:53.208Z,4.51
2018-03-16T06:19:25.733Z,4.52
2018-03-16T06:21:58.227Z,4.50
2018-03-16T06:24:30.711Z,4.35
2018-03-16T06:27:03.205Z,3.99
2018-03-16T06:29:35.683Z,4.32
2018-03-16T06:32:08.179Z,4.17
2018-03-16T06:34:40.655Z,4.11
2018-03-16T06:37:13.415Z,4.28
2018-03-16T06:39:46.053Z,4.00
2018-03-16T06:42:18.643Z,4.59
2018-03-16T06:44:51.331Z,4.13
2018-03-16T06:47:23.959Z,3.97
2018-03-16T06:49:56.475Z,4.01
2018-03-16T06:52:28.984Z,4.18
2018-03-16T06:55:01.462Z,4.18
2018-03-16T06:57:33.965Z,3.75
2018-03-16T07:00:06.439Z,4.08
2018-03-16T07:02:38.942Z,4.42
2018-03-16T07:05:11.421Z,4.14
2018-03-16T07:07:44.453Z,4.44
2018-03-16T07:10:17.636Z,4.17
2018-03-16T07:12:50.501Z,4.12
2018-03-16T07:15:37.891Z,4.45
2018-03-16T07:18:10.383Z,4.43
2018-03-16T07:20:43.161Z,4.78
2018-03-16T07:23:15.967Z,3.93
2018-03-16T07:25:48.631Z,4.08
2018-03-16T07:28:21.273Z,3.70
2018-03-16T07:30:53.906Z,4.22
2018-03-16T07:33:26.462Z,3.69
2018-03-16T07:35:58.939Z,4.06
2018-03-16T07:38:31.439Z,3.98
2018-03-16T07:41:03.912Z,3.94
2018-03-16T07:43:36.416Z,4.46
2018-03-16T07:46:14.625Z,4.08
2018-03-16T07:48:47.774Z,4.58
2018-03-16T07:51:21.195Z,4.19
2018-03-16T07:53:53.856Z,4.24
2018-03-16T07:56:26.352Z,4.17
2018-03-16T07:58:58.855Z,4.33
2018-03-16T08:01:31.335Z,4.41
2018-03-16T08:04:03.835Z,4.20
2018-03-16T08:06:36.312Z,4.11
2018-03-16T08:09:08.816Z,3.61
2018-03-16T08:11:41.308Z,4.38
2018-03-16T08:14:15.055Z,3.93
2018-03-16T08:16:47.743Z,3.56
2018-03-16T08:19:20.337Z,4.10
2018-03-16T08:21:52.932Z,4.12
2018-03-16T08:24:25.514Z,4.49
2018-03-16T08:26:58.007Z,4.15
2018-03-16T08:29:30.511Z,4.19
2018-03-16T08:32:02.995Z,4.21
2018-03-16T08:34:35.490Z,4.31
2018-03-16T08:37:07.974Z,3.83
2018-03-16T08:39:40.476Z,3.94
2018-03-16T08:42:13.466Z,3.84
2018-03-16T08:44:46.753Z,4.06
2018-03-16T08:47:19.408Z,3.75
2018-03-16T08:49:52.040Z,4.00
2018-03-16T08:52:24.750Z,3.90
2018-03-16T08:54:57.284Z,3.95
2018-03-16T08:57:29.764Z,3.83
2018-03-16T09:00:02.266Z,3.86
2018-03-16T09:02:34.766Z,3.93
2018-03-16T09:05:07.272Z,3.95
2018-03-16T09:07:39.771Z,4.10
2018-03-16T09:10:12.918Z,4.21
2018-03-16T09:12:45.767Z,3.88
2018-03-16T09:15:18.417Z,3.93
2018-03-16T09:17:51.069Z,4.21
2018-03-16T09:20:23.701Z,3.92
2018-03-16T09:22:56.319Z,3.86
2018-03-16T09:25:28.865Z,3.97
2018-03-16T09:28:01.328Z,3.44
2018-03-16T09:30:34.263Z,3.34
2018-03-16T09:33:06.763Z,3.58
2018-03-16T09:35:39.240Z,3.71
2018-03-16T09:38:11.770Z,3.42
2018-03-16T09:40:44.695Z,3.92
2018-03-16T09:43:17.722Z,3.28
2018-03-16T09:45:50.432Z,3.60
2018-03-16T09:48:23.091Z,3.48
2018-03-16T09:50:55.631Z,3.96
2018-03-16T09:53:31.047Z,3.84
2018-03-16T09:56:03.523Z,3.81
2018-03-16T09:58:36.003Z,4.00
2018-03-16T10:01:08.513Z,3.83
2018-03-16T10:03:41.018Z,3.84
2018-03-16T10:06:14.631Z,3.81
2018-03-16T10:08:47.367Z,3.76
2018-03-16T10:11:19.999Z,3.58
2018-03-16T10:13:52.565Z,3.38
2018-03-16T10:16:25.110Z,3.88
2018-03-16T10:18:57.667Z,4.16
2018-03-16T10:21:30.145Z,4.29
2018-03-16T10:24:02.648Z,3.70
2018-03-16T10:26:35.114Z,3.79
2018-03-16T10:29:07.602Z,3.99
2018-03-16T10:31:40.074Z,4.17
2018-03-16T10:34:12.813Z,3.98
2018-03-16T10:36:45.968Z,3.85
2018-03-16T10:39:18.817Z,3.80
2018-03-16T10:41:51.414Z,3.44
2018-03-16T10:44:24.027Z,4.17
2018-03-16T10:46:56.565Z,4.17
2018-03-16T10:49:29.080Z,4.10
2018-03-16T10:52:01.543Z,4.23
2018-03-16T10:54:34.047Z,4.23
2018-03-16T10:57:06.552Z,3.96
2018-03-16T10:59:39.043Z,3.84
2018-03-16T11:02:17.464Z,3.64
2018-03-16T11:04:55.589Z,3.83
2018-03-16T11:07:44.040Z,3.73
2018-03-16T11:10:22.378Z,3.73
2018-03-16T11:12:54.883Z,3.90
2018-03-16T11:15:27.415Z,4.20
2018-03-16T11:17:59.926Z,3.75
2018-03-16T11:20:32.427Z,3.83
2018-03-16T11:23:04.890Z,3.72
2018-03-16T11:25:37.382Z,3.33
2018-03-16T11:28:09.883Z,2.99
2018-03-16T11:30:42.721Z,3.59
2018-03-16T11:33:15.549Z,3.42
2018-03-16T11:35:49.487Z,3.98
2018-03-16T11:38:22.658Z,3.79
2018-03-16T11:40:55.363Z,4.00
2018-03-16T11:43:29.181Z,3.75
2018-03-16T11:46:02.180Z,3.74
2018-03-16T11:48:34.994Z,3.69
2018-03-16T11:51:07.792Z,3.34
2018-03-16T11:53:41.760Z,3.98
2018-03-16T11:56:15.013Z,3.90
2018-03-16T11:58:48.162Z,4.03
2018-03-16T12:01:21.182Z,4.16
2018-03-16T12:03:56.262Z,3.89
2018-03-16T12:06:28.995Z,4.08
2018-03-16T12:09:01.533Z,3.93
2018-03-16T12:11:34.046Z,3.80
2018-03-16T12:14:06.698Z,3.71
2018-03-16T12:16:39.404Z,3.67
2018-03-16T12:19:11.985Z,3.60
2018-03-16T12:21:44.850Z,3.83
2018-03-16T12:24:17.776Z,3.69
2018-03-16T12:26:50.516Z,3.96
2018-03-16T12:29:23.395Z,4.14
2018-03-16T12:31:55.999Z,3.71
2018-03-16T12:34:28.538Z,3.98
2018-03-16T12:37:01.058Z,3.86
2018-03-16T12:39:33.721Z,3.78
2018-03-16T12:42:06.289Z,3.25
2018-03-16T12:44:38.803Z,3.33
2018-03-16T12:47:11.274Z,3.81
2018-03-16T12:49:44.468Z,3.48
2018-03-16T12:52:17.809Z,3.65
2018-03-16T12:54:50.364Z,4.02
2018-03-16T12:57:22.917Z,3.90
2018-03-16T12:59:55.730Z,3.72
2018-03-16T13:02:28.456Z,3.68
2018-03-16T13:05:01.157Z,3.95
2018-03-16T13:07:33.720Z,3.81
2018-03-16T13:10:06.375Z,3.93
2018-03-16T13:12:38.918Z,4.00
2018-03-16T13:15:11.568Z,3.81
2018-03-16T13:17:44.550Z,3.92
2018-03-16T13:20:17.460Z,4.00
2018-03-16T13:22:50.107Z,3.98
2018-03-16T13:25:22.904Z,3.82
2018-03-16T13:27:55.474Z,3.91
2018-03-16T13:30:28.023Z,3.73
2018-03-16T13:33:00.542Z,4.00
2018-03-16T13:35:33.099Z,3.32
2018-03-16T13:38:05.650Z,3.80
2018-03-16T13:40:38.159Z,3.99
2018-03-16T13:43:10.702Z,3.78
2018-03-16T13:45:44.407Z,3.62
2018-03-16T13:48:17.078Z,3.63
2018-03-16T13:50:49.688Z,2.81
2018-03-16T13:53:22.318Z,3.33
2018-03-16T13:55:55.018Z,2.48
2018-03-16T13:58:27.589Z,3.51
2018-03-16T14:01:00.170Z,3.23
2018-03-16T14:03:32.777Z,3.06
2018-03-16T14:06:05.283Z,3.41
2018-03-16T14:08:37.847Z,3.52
2018-03-16T14:11:10.466Z,3.63
2018-03-16T14:13:43.163Z,3.74
2018-03-16T14:16:16.312Z,3.57
2018-03-16T14:18:49.043Z,3.43
2018-03-16T14:21:21.984Z,3.21
2018-03-16T14:23:54.621Z,3.50
2018-03-16T14:26:28.365Z,3.45
2018-03-16T14:29:01.111Z,3.34
2018-03-16T14:31:33.766Z,3.11
2018-03-16T14:34:06.422Z,3.51
2018-03-16T14:36:39.380Z,2.84
2018-03-16T14:39:13.186Z,2.92
2018-03-16T14:41:46.217Z,2.66
2018-03-16T14:44:19.401Z,2.79
2018-03-16T14:46:52.613Z,2.96
2018-03-16T14:49:25.505Z,2.53
2018-03-16T14:51:58.207Z,2.86
2018-03-16T14:54:31.043Z,2.53
2018-03-16T14:57:03.619Z,3.09
2018-03-16T14:59:36.297Z,2.73
2018-03-16T15:02:09.016Z,2.84
2018-03-16T15:04:42.272Z,2.85
2018-03-16T15:07:15.073Z,2.74
2018-03-16T15:09:48.289Z,2.46
2018-03-16T15:12:21.180Z,2.69
2018-03-16T15:14:54.196Z,2.37
2018-03-16T15:17:26.838Z,2.91
2018-03-16T15:19:59.450Z,2.87
2018-03-16T15:22:31.999Z,2.62
2018-03-16T15:25:04.630Z,3.06
2018-03-16T15:27:37.445Z,2.89
2018-03-16T15:30:10.148Z,2.47
2018-03-16T15:32:42.858Z,2.50
2018-03-16T15:35:18.129Z,3.07
2018-03-16T15:37:51.117Z,2.63
2018-03-16T15:40:24.047Z,3.10
2018-03-16T15:42:56.631Z,2.95
2018-03-16T15:45:29.245Z,3.17
2018-03-16T15:48:01.851Z,3.26
2018-03-16T15:50:34.429Z,2.89
2018-03-16T15:53:07.169Z,3.26
2018-03-16T15:55:40.721Z,3.19
2018-03-16T15:58:13.490Z,2.82
2018-03-16T16:00:46.765Z,2.90
2018-03-16T16:03:19.433Z,3.04
2018-03-16T16:05:52.229Z,3.22
2018-03-16T16:08:24.804Z,3.02
2018-03-16T16:10:57.631Z,2.89
2018-03-16T16:13:30.229Z,2.82
2018-03-16T16:16:02.798Z,3.06
2018-03-16T16:18:35.334Z,2.90
2018-03-16T16:21:07.929Z,2.68
2018-03-16T16:23:40.606Z,2.97
2018-03-16T16:26:14.133Z,2.71
2018-03-16T16:28:47.081Z,2.81
2018-03-16T16:31:20.074Z,2.62
2018-03-16T16:33:52.927Z,2.41
2018-03-16T16:36:25.931Z,2.63
2018-03-16T16:38:58.488Z,2.75
2018-03-16T16:41:31.427Z,2.81
2018-03-16T16:44:04.025Z,2.64
2018-03-16T16:46:36.835Z,2.50
2018-03-16T16:49:09.425Z,2.54
2018-03-16T16:51:42.158Z,2.37
2018-03-16T16:54:15.122Z,2.42
2018-03-16T16:56:48.087Z,2.69
2018-03-16T16:59:20.796Z,2.48
2018-03-16T17:01:53.870Z,2.71
2018-03-16T17:04:26.641Z,2.42
2018-03-16T17:06:59.303Z,2.60
2018-03-16T17:09:31.841Z,2.45
2018-03-16T17:12:04.450Z,2.40
2018-03-16T17:14:36.967Z,2.64
2018-03-16T17:17:09.516Z,2.48
2018-03-16T17:19:42.440Z,2.55
2018-03-16T17:22:15.614Z,2.77
2018-03-16T17:24:48.499Z,2.67
2018-03-16T17:27:21.661Z,2.62
2018-03-16T17:29:54.873Z,2.45
2018-03-16T17:32:27.575Z,2.62
2018-03-16T17:35:00.339Z,2.41
2018-03-16T17:37:32.996Z,2.58
2018-03-16T17:40:05.751Z,2.13
2018-03-16T17:42:38.280Z,1.90
2018-03-16T17:45:10.834Z,2.22
2018-03-16T17:47:43.649Z,1.86
2018-03-16T17:50:16.560Z,2.04
2018-03-16T17:52:49.293Z,2.09
2018-03-16T17:55:21.946Z,2.01
2018-03-16T17:57:55.646Z,1.76
2018-03-16T18:00:28.267Z,2.14
2018-03-16T18:03:01.062Z,2.14
2018-03-16T18:05:33.704Z,2.37
2018-03-16T18:08:06.326Z,1.57
2018-03-16T18:10:38.953Z,1.99
2018-03-16T18:13:12.047Z,1.96
2018-03-16T18:15:45.343Z,2.24
2018-03-16T18:18:18.304Z,2.52
2018-03-16T18:20:51.159Z,2.26
2018-03-16T18:23:24.105Z,2.09
2018-03-16T18:25:56.969Z,2.13
2018-03-16T18:28:30.200Z,1.99
2018-03-16T18:31:02.877Z,2.09
2018-03-16T18:33:35.497Z,2.35
2018-03-16T18:36:08.228Z,1.69
2018-03-16T18:38:40.833Z,1.75
2018-03-16T18:41:13.516Z,2.30
2018-03-16T18:43:46.495Z,2.09
2018-03-16T18:46:19.144Z,2.10
2018-03-16T18:48:52.065Z,1.50
2018-03-16T18:51:24.965Z,1.68
2018-03-16T18:53:57.595Z,1.97
2018-03-16T18:56:30.364Z,1.72
2018-03-16T18:59:02.980Z,1.69
2018-03-16T19:01:35.692Z,2.04
2018-03-16T19:04:14.507Z,1.66
2018-03-16T19:06:49.470Z,1.85
2018-03-16T19:12:08.356Z,1.60
2018-03-16T19:14:40.935Z,1.89
2018-03-16T19:20:02.934Z,1.48
2018-03-16T19:22:35.549Z,0.53
2018-03-16T19:25:08.387Z,1.36
2018-03-16T19:27:54.356Z,1.00
2018-03-16T19:30:27.170Z,1.14
2018-03-16T19:32:59.835Z,1.37
2018-03-16T19:35:32.706Z,1.08
2018-03-16T19:38:05.409Z,1.50
2018-03-16T19:40:37.972Z,1.12
2018-03-16T19:43:18.283Z,1.39
2018-03-16T19:46:04.949Z,1.12
2018-03-16T19:48:49.560Z,1.44
2018-03-16T19:51:25.669Z,1.60
2018-03-16T19:59:54.048Z,1.39
2018-03-16T20:02:28.668Z,1.86
2018-03-16T20:05:06.202Z,1.53
2018-03-16T20:07:40.856Z,1.73
2018-03-16T20:10:23.597Z,1.54
2018-03-16T20:12:57.833Z,1.84
2018-03-16T20:15:30.438Z,1.49
2018-03-16T20:18:02.930Z,1.27
2018-03-16T20:20:35.408Z,0.68
2018-03-16T20:23:07.902Z,0.44
2018-03-16T20:25:40.390Z,1.04
2018-03-16T20:28:13.204Z,0.52
2018-03-16T20:30:45.783Z,0.83
2018-03-16T20:33:19.450Z,1.12
2018-03-16T20:35:52.016Z,1.13
2018-03-16T20:38:24.520Z,0.59
2018-03-16T20:40:57.000Z,0.90
2018-03-16T20:43:29.919Z,0.91
2018-03-16T20:46:03.308Z,1.05
2018-03-16T20:48:37.583Z,0.93
2018-03-16T20:51:10.794Z,0.88
2018-03-16T20:53:43.914Z,0.61
2018-03-16T20:56:16.782Z,0.64
2018-03-16T20:58:49.500Z,0.62
2018-03-16T21:01:22.448Z,0.91
2018-03-16T21:03:55.749Z,0.52
2018-03-16T21:06:28.552Z,0.90
2018-03-16T21:09:01.075Z,0.61
2018-03-16T21:11:35.147Z,0.84
2018-03-16T21:14:08.499Z,0.79
2018-03-16T21:16:41.452Z,-0.22
2018-03-16T21:19:14.358Z,0.26
2018-03-16T21:21:47.370Z,0.32
2018-03-16T21:24:20.302Z,0.20
2018-03-16T21:26:53.152Z,0.27
2018-03-16T21:29:26.939Z,0.53
2018-03-16T21:32:01.080Z,1.00
2018-03-16T21:34:33.706Z,0.71
2018-03-16T21:37:06.506Z,0.82
2018-03-16T21:39:39.162Z,0.75
2018-03-16T21:42:11.737Z,0.24
2018-03-16T21:44:44.272Z,0.22
2018-03-16T21:47:16.747Z,0.54
2018-03-16T21:49:49.294Z,-0.21
2018-03-16T21:52:21.769Z,0.05
2018-03-16T21:54:54.268Z,0.15
2018-03-16T21:57:26.735Z,0.14
2018-03-16T21:59:59.234Z,0.52
2018-03-16T22:02:31.774Z,0.14
2018-03-16T22:05:04.425Z,0.39
2018-03-16T22:07:37.124Z,0.25
2018-03-16T22:10:09.706Z,0.69
2018-03-16T22:12:42.277Z,0.36
2018-03-16T22:15:14.816Z,-0.05
2018-03-16T22:17:47.370Z,0.27
2018-03-16T22:20:19.866Z,0.25
2018-03-16T22:22:52.340Z,0.09
2018-03-16T22:25:24.844Z,-0.02
2018-03-16T22:27:57.325Z,-0.13
2018-03-16T22:30:30.096Z,0.30
2018-03-16T22:33:02.715Z,0.60
2018-03-16T22:35:35.686Z,-0.36
2018-03-16T22:38:08.313Z,0.00
2018-03-16T22:40:40.996Z,0.26
2018-03-16T22:43:13.971Z,0.55
2018-03-16T22:45:46.798Z,0.47
2018-03-16T22:48:19.392Z,0.35
2018-03-16T22:50:52.114Z,0.29
2018-03-16T22:53:25.011Z,0.11
2018-03-16T22:55:57.559Z,0.21
2018-03-16T22:58:30.348Z,0.45
2018-03-16T23:01:02.873Z,0.03
2018-03-16T23:03:35.503Z,-0.18
2018-03-16T23:06:08.321Z,-0.32
2018-03-16T23:08:41.201Z,-0.16
2018-03-16T23:11:13.882Z,-0.08
2018-03-16T23:13:46.468Z,-0.04
2018-03-16T23:16:19.579Z,-0.28
2018-03-16T23:18:52.169Z,-0.43
2018-03-16T23:21:24.675Z,0.13
2018-03-16T23:23:57.163Z,0.12
2018-03-16T23:26:29.659Z,-0.17
2018-03-16T23:29:02.574Z,0.06
2018-03-16T23:31:35.215Z,-0.27
2018-03-16T23:34:08.099Z,-0.03
2018-03-16T23:36:40.764Z,-1.05
2018-03-16T23:39:13.823Z,-0.23
2018-03-16T23:41:46.329Z,0.01
2018-03-16T23:44:18.828Z,0.02
2018-03-16T23:46:51.550Z,-0.17
2018-03-16T23:49:24.491Z,-0.39
2018-03-16T23:51:57.129Z,-0.12
2018-03-16T23:54:29.655Z,-0.39
2018-03-16T23:57:02.161Z,-0.19
2018-03-16T23:59:35.024Z,-0.04
